sensor_id;sensor_type;location;lat;lon;timestamp;P1;durP1;ratioP1;P2;durP2;ratioP2
28774;SDS011;15926;51.348;6.596;2024-01-30T00:02:00;14.13;;;9.00;;
28774;SDS011;15926;51.348;6.596;2024-01-30T00:04:25;13.60;;;8.52;;
28774;SDS011;15926;51.348;6.596;2024-01-30T00:06:51;15.82;;;9.80;;
28774;SDS011;15926;51.348;6.596;2024-01-30T00:09:18;15.73;;;10.07;;
28774;SDS011;15926;51.348;6.596;2024-01-30T00:11:44;18.08;;;9.70;;
28774;SDS011;15926;51.348;6.596;2024-01-30T00:14:10;19.60;;;10.70;;
28774;SDS011;15926;51.348;6.596;2024-01-30T00:16:36;21.00;;;10.93;;
28774;SDS011;15926;51.348;6.596;2024-01-30T00:19:02;19.48;;;11.77;;
28774;SDS011;15926;51.348;6.596;2024-01-30T00:21:28;24.30;;;12.88;;
28774;SDS011;15926;51.348;6.596;2024-01-30T00:23:54;17.17;;;11.55;;
28774;SDS011;15926;51.348;6.596;2024-01-30T00:26:20;22.67;;;12.65;;
28774;SDS011;15926;51.348;6.596;2024-01-30T00:28:46;18.95;;;11.30;;
28774;SDS011;15926;51.348;6.596;2024-01-30T00:31:12;17.55;;;11.93;;
28774;SDS011;15926;51.348;6.596;2024-01-30T00:33:39;18.92;;;12.13;;
28774;SDS011;15926;51.348;6.596;2024-01-30T00:36:05;22.23;;;11.18;;
28774;SDS011;15926;51.348;6.596;2024-01-30T00:38:31;19.08;;;11.63;;
28774;SDS011;15926;51.348;6.596;2024-01-30T00:40:58;14.85;;;10.43;;
28774;SDS011;15926;51.348;6.596;2024-01-30T00:43:24;19.92;;;11.35;;
28774;SDS011;15926;51.348;6.596;2024-01-30T00:45:50;16.27;;;11.10;;
28774;SDS011;15926;51.348;6.596;2024-01-30T00:48:19;19.15;;;11.80;;
28774;SDS011;15926;51.348;6.596;2024-01-30T00:50:45;18.05;;;11.15;;
28774;SDS011;15926;51.348;6.596;2024-01-30T00:53:11;17.00;;;11.10;;
28774;SDS011;15926;51.348;6.596;2024-01-30T00:55:37;14.25;;;10.52;;
28774;SDS011;15926;51.348;6.596;2024-01-30T00:58:04;20.67;;;10.95;;
28774;SDS011;15926;51.348;6.596;2024-01-30T01:00:30;19.38;;;11.18;;
28774;SDS011;15926;51.348;6.596;2024-01-30T01:02:57;18.02;;;11.18;;
28774;SDS011;15926;51.348;6.596;2024-01-30T01:05:23;15.32;;;10.32;;
28774;SDS011;15926;51.348;6.596;2024-01-30T01:07:49;17.40;;;10.73;;
28774;SDS011;15926;51.348;6.596;2024-01-30T01:10:18;21.25;;;10.80;;
28774;SDS011;15926;51.348;6.596;2024-01-30T01:15:10;17.08;;;9.93;;
28774;SDS011;15926;51.348;6.596;2024-01-30T01:17:37;20.20;;;11.38;;
28774;SDS011;15926;51.348;6.596;2024-01-30T01:20:03;14.95;;;10.55;;
28774;SDS011;15926;51.348;6.596;2024-01-30T01:22:32;16.17;;;9.82;;
28774;SDS011;15926;51.348;6.596;2024-01-30T01:24:59;13.82;;;10.80;;
28774;SDS011;15926;51.348;6.596;2024-01-30T01:27:25;20.58;;;10.45;;
28774;SDS011;15926;51.348;6.596;2024-01-30T01:29:51;20.88;;;11.32;;
28774;SDS011;15926;51.348;6.596;2024-01-30T01:32:17;17.08;;;10.40;;
28774;SDS011;15926;51.348;6.596;2024-01-30T01:34:43;19.60;;;10.80;;
28774;SDS011;15926;51.348;6.596;2024-01-30T01:37:09;21.70;;;11.68;;
28774;SDS011;15926;51.348;6.596;2024-01-30T01:39:35;16.27;;;9.73;;
28774;SDS011;15926;51.348;6.596;2024-01-30T01:42:02;17.40;;;11.20;;
28774;SDS011;15926;51.348;6.596;2024-01-30T01:44:28;20.45;;;11.40;;
28774;SDS011;15926;51.348;6.596;2024-01-30T01:46:54;17.33;;;10.63;;
28774;SDS011;15926;51.348;6.596;2024-01-30T01:49:29;17.80;;;10.75;;
28774;SDS011;15926;51.348;6.596;2024-01-30T01:51:55;20.33;;;11.38;;
28774;SDS011;15926;51.348;6.596;2024-01-30T01:54:22;16.52;;;11.93;;
28774;SDS011;15926;51.348;6.596;2024-01-30T01:56:49;15.65;;;10.73;;
28774;SDS011;15926;51.348;6.596;2024-01-30T01:59:16;23.02;;;11.05;;
28774;SDS011;15926;51.348;6.596;2024-01-30T02:01:43;18.55;;;10.73;;
28774;SDS011;15926;51.348;6.596;2024-01-30T02:04:10;19.60;;;10.23;;
28774;SDS011;15926;51.348;6.596;2024-01-30T02:06:36;16.42;;;11.43;;
28774;SDS011;15926;51.348;6.596;2024-01-30T02:09:03;19.27;;;11.10;;
28774;SDS011;15926;51.348;6.596;2024-01-30T02:11:29;14.48;;;10.63;;
28774;SDS011;15926;51.348;6.596;2024-01-30T02:13:56;15.65;;;10.07;;
28774;SDS011;15926;51.348;6.596;2024-01-30T02:16:22;15.52;;;11.40;;
28774;SDS011;15926;51.348;6.596;2024-01-30T02:18:48;16.73;;;10.68;;
28774;SDS011;15926;51.348;6.596;2024-01-30T02:21:15;20.60;;;11.65;;
28774;SDS011;15926;51.348;6.596;2024-01-30T02:23:41;16.20;;;11.40;;
28774;SDS011;15926;51.348;6.596;2024-01-30T02:26:09;18.35;;;10.63;;
28774;SDS011;15926;51.348;6.596;2024-01-30T02:28:36;20.88;;;12.07;;
28774;SDS011;15926;51.348;6.596;2024-01-30T02:31:02;20.77;;;11.60;;
28774;SDS011;15926;51.348;6.596;2024-01-30T02:33:28;16.48;;;11.60;;
28774;SDS011;15926;51.348;6.596;2024-01-30T02:35:54;18.67;;;10.55;;
28774;SDS011;15926;51.348;6.596;2024-01-30T02:38:20;18.23;;;11.68;;
28774;SDS011;15926;51.348;6.596;2024-01-30T02:40:46;21.65;;;11.70;;
28774;SDS011;15926;51.348;6.596;2024-01-30T02:43:12;19.95;;;10.52;;
28774;SDS011;15926;51.348;6.596;2024-01-30T02:45:38;14.57;;;10.40;;
28774;SDS011;15926;51.348;6.596;2024-01-30T02:48:04;17.52;;;10.10;;
28774;SDS011;15926;51.348;6.596;2024-01-30T02:50:30;15.10;;;10.10;;
28774;SDS011;15926;51.348;6.596;2024-01-30T02:52:56;15.27;;;10.68;;
28774;SDS011;15926;51.348;6.596;2024-01-30T02:55:22;16.27;;;10.45;;
28774;SDS011;15926;51.348;6.596;2024-01-30T02:57:48;14.60;;;10.48;;
28774;SDS011;15926;51.348;6.596;2024-01-30T03:00:14;18.95;;;10.80;;
28774;SDS011;15926;51.348;6.596;2024-01-30T03:02:40;17.95;;;11.18;;
28774;SDS011;15926;51.348;6.596;2024-01-30T03:05:07;16.88;;;10.88;;
28774;SDS011;15926;51.348;6.596;2024-01-30T03:07:33;18.45;;;10.80;;
28774;SDS011;15926;51.348;6.596;2024-01-30T03:10:00;15.82;;;10.48;;
28774;SDS011;15926;51.348;6.596;2024-01-30T03:12:26;17.23;;;10.73;;
28774;SDS011;15926;51.348;6.596;2024-01-30T03:14:52;17.45;;;10.93;;
28774;SDS011;15926;51.348;6.596;2024-01-30T03:17:18;14.90;;;10.88;;
28774;SDS011;15926;51.348;6.596;2024-01-30T03:19:44;15.63;;;10.68;;
28774;SDS011;15926;51.348;6.596;2024-01-30T03:22:10;14.80;;;11.05;;
28774;SDS011;15926;51.348;6.596;2024-01-30T03:24:36;18.90;;;10.27;;
28774;SDS011;15926;51.348;6.596;2024-01-30T03:27:02;19.85;;;10.25;;
28774;SDS011;15926;51.348;6.596;2024-01-30T03:29:28;17.13;;;10.85;;
28774;SDS011;15926;51.348;6.596;2024-01-30T03:31:54;18.38;;;11.60;;
28774;SDS011;15926;51.348;6.596;2024-01-30T03:34:20;17.38;;;11.18;;
28774;SDS011;15926;51.348;6.596;2024-01-30T03:36:46;19.42;;;11.05;;
28774;SDS011;15926;51.348;6.596;2024-01-30T03:39:12;20.25;;;11.20;;
28774;SDS011;15926;51.348;6.596;2024-01-30T03:41:41;19.48;;;10.45;;
28774;SDS011;15926;51.348;6.596;2024-01-30T03:44:07;16.92;;;10.55;;
28774;SDS011;15926;51.348;6.596;2024-01-30T03:46:33;21.55;;;11.43;;
28774;SDS011;15926;51.348;6.596;2024-01-30T03:48:59;17.77;;;10.73;;
28774;SDS011;15926;51.348;6.596;2024-01-30T03:51:25;20.98;;;11.15;;
28774;SDS011;15926;51.348;6.596;2024-01-30T03:53:51;17.35;;;10.45;;
28774;SDS011;15926;51.348;6.596;2024-01-30T03:56:17;25.02;;;11.43;;
28774;SDS011;15926;51.348;6.596;2024-01-30T03:58:43;19.80;;;10.82;;
28774;SDS011;15926;51.348;6.596;2024-01-30T04:01:13;18.10;;;11.85;;
28774;SDS011;15926;51.348;6.596;2024-01-30T04:03:39;18.77;;;11.18;;
28774;SDS011;15926;51.348;6.596;2024-01-30T04:06:05;16.98;;;11.20;;
28774;SDS011;15926;51.348;6.596;2024-01-30T04:08:31;17.90;;;10.93;;
28774;SDS011;15926;51.348;6.596;2024-01-30T04:10:57;18.02;;;11.27;;
28774;SDS011;15926;51.348;6.596;2024-01-30T04:13:23;20.45;;;11.25;;
28774;SDS011;15926;51.348;6.596;2024-01-30T04:15:49;21.10;;;11.60;;
28774;SDS011;15926;51.348;6.596;2024-01-30T04:18:15;22.08;;;11.02;;
28774;SDS011;15926;51.348;6.596;2024-01-30T04:20:41;21.63;;;11.18;;
28774;SDS011;15926;51.348;6.596;2024-01-30T04:23:07;23.20;;;11.07;;
28774;SDS011;15926;51.348;6.596;2024-01-30T04:25:33;14.63;;;11.25;;
28774;SDS011;15926;51.348;6.596;2024-01-30T04:27:59;18.52;;;11.10;;
28774;SDS011;15926;51.348;6.596;2024-01-30T04:30:25;19.10;;;11.18;;
28774;SDS011;15926;51.348;6.596;2024-01-30T04:32:51;20.98;;;10.45;;
28774;SDS011;15926;51.348;6.596;2024-01-30T04:35:17;18.13;;;11.45;;
28774;SDS011;15926;51.348;6.596;2024-01-30T04:37:45;16.67;;;11.00;;
28774;SDS011;15926;51.348;6.596;2024-01-30T04:40:11;19.17;;;11.18;;
28774;SDS011;15926;51.348;6.596;2024-01-30T04:42:37;16.25;;;11.40;;
28774;SDS011;15926;51.348;6.596;2024-01-30T04:45:05;18.90;;;11.45;;
28774;SDS011;15926;51.348;6.596;2024-01-30T04:47:31;20.23;;;11.57;;
28774;SDS011;15926;51.348;6.596;2024-01-30T04:49:57;23.30;;;11.82;;
28774;SDS011;15926;51.348;6.596;2024-01-30T04:52:23;24.27;;;11.70;;
28774;SDS011;15926;51.348;6.596;2024-01-30T04:54:49;21.50;;;11.10;;
28774;SDS011;15926;51.348;6.596;2024-01-30T04:57:15;16.48;;;10.45;;
28774;SDS011;15926;51.348;6.596;2024-01-30T04:59:41;25.90;;;10.57;;
28774;SDS011;15926;51.348;6.596;2024-01-30T05:02:07;18.55;;;10.93;;
28774;SDS011;15926;51.348;6.596;2024-01-30T05:04:33;14.48;;;9.30;;
28774;SDS011;15926;51.348;6.596;2024-01-30T05:07:00;18.75;;;10.88;;
28774;SDS011;15926;51.348;6.596;2024-01-30T05:09:26;18.45;;;10.70;;
28774;SDS011;15926;51.348;6.596;2024-01-30T05:11:52;15.15;;;10.10;;
28774;SDS011;15926;51.348;6.596;2024-01-30T05:14:18;18.75;;;10.05;;
28774;SDS011;15926;51.348;6.596;2024-01-30T05:16:44;14.23;;;10.38;;
28774;SDS011;15926;51.348;6.596;2024-01-30T05:19:12;16.50;;;10.00;;
28774;SDS011;15926;51.348;6.596;2024-01-30T05:21:39;11.30;;;8.75;;
28774;SDS011;15926;51.348;6.596;2024-01-30T05:24:05;16.33;;;9.30;;
28774;SDS011;15926;51.348;6.596;2024-01-30T05:26:31;16.05;;;10.07;;
28774;SDS011;15926;51.348;6.596;2024-01-30T05:28:57;16.08;;;10.05;;
28774;SDS011;15926;51.348;6.596;2024-01-30T05:31:23;16.65;;;9.07;;
28774;SDS011;15926;51.348;6.596;2024-01-30T05:33:51;14.20;;;9.35;;
28774;SDS011;15926;51.348;6.596;2024-01-30T05:36:17;14.98;;;9.27;;
28774;SDS011;15926;51.348;6.596;2024-01-30T05:38:43;15.43;;;8.93;;
28774;SDS011;15926;51.348;6.596;2024-01-30T05:41:09;14.13;;;9.50;;
28774;SDS011;15926;51.348;6.596;2024-01-30T05:43:35;12.27;;;9.13;;
28774;SDS011;15926;51.348;6.596;2024-01-30T05:46:01;16.65;;;9.18;;
28774;SDS011;15926;51.348;6.596;2024-01-30T05:48:27;14.07;;;8.55;;
28774;SDS011;15926;51.348;6.596;2024-01-30T05:50:53;14.48;;;9.68;;
28774;SDS011;15926;51.348;6.596;2024-01-30T05:53:19;16.13;;;9.25;;
28774;SDS011;15926;51.348;6.596;2024-01-30T05:55:46;17.05;;;9.40;;
28774;SDS011;15926;51.348;6.596;2024-01-30T05:58:12;12.82;;;9.63;;
28774;SDS011;15926;51.348;6.596;2024-01-30T06:00:38;11.95;;;9.15;;
28774;SDS011;15926;51.348;6.596;2024-01-30T06:03:04;14.45;;;9.23;;
28774;SDS011;15926;51.348;6.596;2024-01-30T06:05:30;13.27;;;9.27;;
28774;SDS011;15926;51.348;6.596;2024-01-30T06:07:56;16.38;;;9.75;;
28774;SDS011;15926;51.348;6.596;2024-01-30T06:10:22;14.00;;;9.18;;
28774;SDS011;15926;51.348;6.596;2024-01-30T06:12:48;14.15;;;8.80;;
28774;SDS011;15926;51.348;6.596;2024-01-30T06:15:14;13.07;;;9.65;;
28774;SDS011;15926;51.348;6.596;2024-01-30T06:17:40;13.38;;;9.30;;
28774;SDS011;15926;51.348;6.596;2024-01-30T06:20:06;14.35;;;9.15;;
28774;SDS011;15926;51.348;6.596;2024-01-30T06:22:32;17.33;;;10.07;;
28774;SDS011;15926;51.348;6.596;2024-01-30T06:24:58;13.68;;;9.65;;
28774;SDS011;15926;51.348;6.596;2024-01-30T06:27:25;14.50;;;8.52;;
28774;SDS011;15926;51.348;6.596;2024-01-30T06:29:51;13.18;;;9.98;;
28774;SDS011;15926;51.348;6.596;2024-01-30T06:32:17;13.70;;;9.50;;
28774;SDS011;15926;51.348;6.596;2024-01-30T06:34:44;12.48;;;8.68;;
28774;SDS011;15926;51.348;6.596;2024-01-30T06:37:10;14.15;;;9.10;;
28774;SDS011;15926;51.348;6.596;2024-01-30T06:39:36;13.68;;;9.40;;
28774;SDS011;15926;51.348;6.596;2024-01-30T06:42:02;14.32;;;9.27;;
28774;SDS011;15926;51.348;6.596;2024-01-30T06:44:28;14.55;;;9.15;;
28774;SDS011;15926;51.348;6.596;2024-01-30T06:46:54;13.35;;;9.23;;
28774;SDS011;15926;51.348;6.596;2024-01-30T06:49:20;14.13;;;9.35;;
28774;SDS011;15926;51.348;6.596;2024-01-30T06:51:47;15.82;;;9.57;;
28774;SDS011;15926;51.348;6.596;2024-01-30T06:54:13;13.35;;;8.77;;
28774;SDS011;15926;51.348;6.596;2024-01-30T06:56:39;14.75;;;9.07;;
28774;SDS011;15926;51.348;6.596;2024-01-30T06:59:05;19.00;;;9.30;;
28774;SDS011;15926;51.348;6.596;2024-01-30T07:01:31;16.73;;;8.75;;
28774;SDS011;15926;51.348;6.596;2024-01-30T07:03:57;14.50;;;9.15;;
28774;SDS011;15926;51.348;6.596;2024-01-30T07:06:23;16.30;;;9.13;;
28774;SDS011;15926;51.348;6.596;2024-01-30T07:08:50;14.45;;;9.10;;
28774;SDS011;15926;51.348;6.596;2024-01-30T07:11:19;14.75;;;9.43;;
28774;SDS011;15926;51.348;6.596;2024-01-30T07:13:47;19.98;;;8.90;;
28774;SDS011;15926;51.348;6.596;2024-01-30T07:16:14;15.15;;;9.18;;
28774;SDS011;15926;51.348;6.596;2024-01-30T07:18:40;14.88;;;9.75;;
28774;SDS011;15926;51.348;6.596;2024-01-30T07:21:06;16.08;;;9.75;;
28774;SDS011;15926;51.348;6.596;2024-01-30T07:23:32;11.82;;;8.93;;
28774;SDS011;15926;51.348;6.596;2024-01-30T07:25:59;14.02;;;9.25;;
28774;SDS011;15926;51.348;6.596;2024-01-30T07:28:25;15.50;;;9.85;;
28774;SDS011;15926;51.348;6.596;2024-01-30T07:30:51;16.98;;;9.35;;
28774;SDS011;15926;51.348;6.596;2024-01-30T07:33:17;14.57;;;9.73;;
28774;SDS011;15926;51.348;6.596;2024-01-30T07:35:44;15.68;;;9.18;;
28774;SDS011;15926;51.348;6.596;2024-01-30T07:38:10;19.05;;;10.57;;
28774;SDS011;15926;51.348;6.596;2024-01-30T07:40:36;15.93;;;10.07;;
28774;SDS011;15926;51.348;6.596;2024-01-30T07:43:03;16.35;;;10.73;;
28774;SDS011;15926;51.348;6.596;2024-01-30T07:45:29;16.25;;;9.77;;
28774;SDS011;15926;51.348;6.596;2024-01-30T07:47:58;17.45;;;9.82;;
28774;SDS011;15926;51.348;6.596;2024-01-30T07:50:27;15.15;;;10.05;;
28774;SDS011;15926;51.348;6.596;2024-01-30T07:52:53;12.88;;;9.27;;
28774;SDS011;15926;51.348;6.596;2024-01-30T07:55:22;18.08;;;9.25;;
28774;SDS011;15926;51.348;6.596;2024-01-30T07:57:56;17.08;;;10.18;;
28774;SDS011;15926;51.348;6.596;2024-01-30T08:00:23;14.35;;;10.50;;
28774;SDS011;15926;51.348;6.596;2024-01-30T08:02:50;14.23;;;10.05;;
28774;SDS011;15926;51.348;6.596;2024-01-30T08:05:19;14.07;;;9.82;;
28774;SDS011;15926;51.348;6.596;2024-01-30T08:07:47;14.75;;;9.77;;
28774;SDS011;15926;51.348;6.596;2024-01-30T08:10:14;15.73;;;10.10;;
28774;SDS011;15926;51.348;6.596;2024-01-30T08:12:40;14.20;;;9.25;;
28774;SDS011;15926;51.348;6.596;2024-01-30T08:15:06;13.00;;;9.18;;
28774;SDS011;15926;51.348;6.596;2024-01-30T08:17:32;12.90;;;8.73;;
28774;SDS011;15926;51.348;6.596;2024-01-30T08:19:58;15.75;;;9.88;;
28774;SDS011;15926;51.348;6.596;2024-01-30T08:22:24;13.55;;;9.18;;
28774;SDS011;15926;51.348;6.596;2024-01-30T08:24:50;13.65;;;8.73;;
28774;SDS011;15926;51.348;6.596;2024-01-30T08:27:16;13.55;;;8.88;;
28774;SDS011;15926;51.348;6.596;2024-01-30T08:29:42;18.42;;;9.88;;
28774;SDS011;15926;51.348;6.596;2024-01-30T08:32:08;12.95;;;8.68;;
28774;SDS011;15926;51.348;6.596;2024-01-30T08:34:34;16.88;;;8.73;;
28774;SDS011;15926;51.348;6.596;2024-01-30T08:37:00;17.85;;;8.50;;
28774;SDS011;15926;51.348;6.596;2024-01-30T08:39:26;14.23;;;8.63;;
28774;SDS011;15926;51.348;6.596;2024-01-30T08:41:52;10.60;;;8.65;;
28774;SDS011;15926;51.348;6.596;2024-01-30T08:44:18;12.23;;;8.15;;
28774;SDS011;15926;51.348;6.596;2024-01-30T08:46:44;17.00;;;8.93;;
28774;SDS011;15926;51.348;6.596;2024-01-30T08:49:11;13.55;;;8.75;;
28774;SDS011;15926;51.348;6.596;2024-01-30T08:54:06;16.75;;;8.93;;
28774;SDS011;15926;51.348;6.596;2024-01-30T08:56:32;13.15;;;8.30;;
28774;SDS011;15926;51.348;6.596;2024-01-30T08:58:58;10.80;;;8.05;;
28774;SDS011;15926;51.348;6.596;2024-01-30T09:01:24;15.70;;;8.70;;
28774;SDS011;15926;51.348;6.596;2024-01-30T09:03:51;11.10;;;9.00;;
28774;SDS011;15926;51.348;6.596;2024-01-30T09:06:17;16.98;;;8.90;;
28774;SDS011;15926;51.348;6.596;2024-01-30T09:08:43;11.05;;;7.93;;
28774;SDS011;15926;51.348;6.596;2024-01-30T09:11:10;11.95;;;8.05;;
28774;SDS011;15926;51.348;6.596;2024-01-30T09:13:36;13.40;;;8.52;;
28774;SDS011;15926;51.348;6.596;2024-01-30T09:16:02;12.70;;;8.68;;
28774;SDS011;15926;51.348;6.596;2024-01-30T09:18:28;15.45;;;8.60;;
28774;SDS011;15926;51.348;6.596;2024-01-30T09:20:55;12.48;;;8.27;;
28774;SDS011;15926;51.348;6.596;2024-01-30T09:23:21;13.02;;;8.05;;
28774;SDS011;15926;51.348;6.596;2024-01-30T09:25:47;14.90;;;8.55;;
28774;SDS011;15926;51.348;6.596;2024-01-30T09:28:13;10.25;;;8.27;;
28774;SDS011;15926;51.348;6.596;2024-01-30T09:30:39;10.05;;;8.45;;
28774;SDS011;15926;51.348;6.596;2024-01-30T09:33:06;11.77;;;8.02;;
28774;SDS011;15926;51.348;6.596;2024-01-30T09:35:32;9.70;;;7.95;;
28774;SDS011;15926;51.348;6.596;2024-01-30T09:37:58;15.60;;;8.68;;
28774;SDS011;15926;51.348;6.596;2024-01-30T09:40:25;14.27;;;8.77;;
28774;SDS011;15926;51.348;6.596;2024-01-30T09:42:51;10.52;;;8.82;;
28774;SDS011;15926;51.348;6.596;2024-01-30T09:45:18;13.65;;;8.52;;
28774;SDS011;15926;51.348;6.596;2024-01-30T09:47:45;13.10;;;8.13;;
28774;SDS011;15926;51.348;6.596;2024-01-30T09:50:12;14.27;;;8.75;;
28774;SDS011;15926;51.348;6.596;2024-01-30T09:52:38;11.23;;;8.98;;
28774;SDS011;15926;51.348;6.596;2024-01-30T09:55:05;11.90;;;8.13;;
28774;SDS011;15926;51.348;6.596;2024-01-30T09:57:31;10.57;;;8.10;;
28774;SDS011;15926;51.348;6.596;2024-01-30T09:59:58;12.02;;;8.48;;
28774;SDS011;15926;51.348;6.596;2024-01-30T10:02:24;12.60;;;8.10;;
28774;SDS011;15926;51.348;6.596;2024-01-30T10:04:50;15.57;;;8.30;;
28774;SDS011;15926;51.348;6.596;2024-01-30T10:07:17;15.38;;;8.63;;
28774;SDS011;15926;51.348;6.596;2024-01-30T10:09:43;12.27;;;7.75;;
28774;SDS011;15926;51.348;6.596;2024-01-30T10:12:10;11.57;;;7.10;;
28774;SDS011;15926;51.348;6.596;2024-01-30T10:14:40;11.38;;;8.07;;
28774;SDS011;15926;51.348;6.596;2024-01-30T10:17:09;11.43;;;7.90;;
28774;SDS011;15926;51.348;6.596;2024-01-30T10:19:39;9.02;;;7.85;;
28774;SDS011;15926;51.348;6.596;2024-01-30T10:22:06;11.38;;;7.13;;
28774;SDS011;15926;51.348;6.596;2024-01-30T10:24:35;10.13;;;7.22;;
28774;SDS011;15926;51.348;6.596;2024-01-30T10:27:01;13.77;;;8.40;;
28774;SDS011;15926;51.348;6.596;2024-01-30T10:29:30;14.07;;;8.65;;
28774;SDS011;15926;51.348;6.596;2024-01-30T10:32:00;11.80;;;8.02;;
28774;SDS011;15926;51.348;6.596;2024-01-30T10:34:26;11.35;;;7.82;;
28774;SDS011;15926;51.348;6.596;2024-01-30T10:39:25;10.93;;;7.30;;
28774;SDS011;15926;51.348;6.596;2024-01-30T10:41:52;14.07;;;8.05;;
28774;SDS011;15926;51.348;6.596;2024-01-30T10:44:20;11.77;;;7.63;;
28774;SDS011;15926;51.348;6.596;2024-01-30T10:46:49;12.32;;;7.47;;
28774;SDS011;15926;51.348;6.596;2024-01-30T10:49:19;17.00;;;7.70;;
28774;SDS011;15926;51.348;6.596;2024-01-30T10:51:51;13.57;;;7.70;;
28774;SDS011;15926;51.348;6.596;2024-01-30T10:54:18;9.20;;;7.10;;
28774;SDS011;15926;51.348;6.596;2024-01-30T10:56:45;11.73;;;8.27;;
28774;SDS011;15926;51.348;6.596;2024-01-30T10:59:12;15.10;;;7.32;;
28774;SDS011;15926;51.348;6.596;2024-01-30T11:01:38;12.50;;;7.28;;
28774;SDS011;15926;51.348;6.596;2024-01-30T11:04:07;12.93;;;8.05;;
28774;SDS011;15926;51.348;6.596;2024-01-30T11:06:40;9.65;;;7.10;;
28774;SDS011;15926;51.348;6.596;2024-01-30T11:09:10;13.60;;;8.15;;
28774;SDS011;15926;51.348;6.596;2024-01-30T11:14:34;15.40;;;7.68;;
28774;SDS011;15926;51.348;6.596;2024-01-30T11:17:00;11.85;;;7.57;;
28774;SDS011;15926;51.348;6.596;2024-01-30T11:19:30;12.90;;;8.15;;
28774;SDS011;15926;51.348;6.596;2024-01-30T11:21:56;13.00;;;7.97;;
28774;SDS011;15926;51.348;6.596;2024-01-30T11:24:26;11.23;;;8.25;;
28774;SDS011;15926;51.348;6.596;2024-01-30T11:26:56;12.85;;;7.88;;
28774;SDS011;15926;51.348;6.596;2024-01-30T11:29:28;14.68;;;8.40;;
28774;SDS011;15926;51.348;6.596;2024-01-30T11:31:54;9.82;;;7.30;;
28774;SDS011;15926;51.348;6.596;2024-01-30T11:34:29;12.25;;;7.78;;
28774;SDS011;15926;51.348;6.596;2024-01-30T11:36:56;15.25;;;8.18;;
28774;SDS011;15926;51.348;6.596;2024-01-30T11:39:31;12.40;;;8.40;;
28774;SDS011;15926;51.348;6.596;2024-01-30T11:44:23;16.55;;;7.93;;
28774;SDS011;15926;51.348;6.596;2024-01-30T11:46:51;12.55;;;8.00;;
28774;SDS011;15926;51.348;6.596;2024-01-30T11:49:17;11.82;;;7.88;;
28774;SDS011;15926;51.348;6.596;2024-01-30T11:51:46;14.80;;;8.15;;
28774;SDS011;15926;51.348;6.596;2024-01-30T11:54:14;15.63;;;8.10;;
28774;SDS011;15926;51.348;6.596;2024-01-30T11:56:40;16.40;;;8.63;;
28774;SDS011;15926;51.348;6.596;2024-01-30T11:59:08;14.50;;;7.78;;
28774;SDS011;15926;51.348;6.596;2024-01-30T12:01:34;13.13;;;7.93;;
28774;SDS011;15926;51.348;6.596;2024-01-30T12:04:00;12.18;;;7.88;;
28774;SDS011;15926;51.348;6.596;2024-01-30T12:06:28;12.73;;;7.47;;
28774;SDS011;15926;51.348;6.596;2024-01-30T12:11:24;10.48;;;6.82;;
28774;SDS011;15926;51.348;6.596;2024-01-30T12:13:51;13.63;;;7.82;;
28774;SDS011;15926;51.348;6.596;2024-01-30T12:16:17;15.82;;;7.80;;
28774;SDS011;15926;51.348;6.596;2024-01-30T12:18:43;17.02;;;7.55;;
28774;SDS011;15926;51.348;6.596;2024-01-30T12:21:09;11.05;;;7.32;;
28774;SDS011;15926;51.348;6.596;2024-01-30T12:23:35;8.80;;;6.90;;
28774;SDS011;15926;51.348;6.596;2024-01-30T12:26:01;13.93;;;8.10;;
28774;SDS011;15926;51.348;6.596;2024-01-30T12:28:28;11.77;;;7.05;;
28774;SDS011;15926;51.348;6.596;2024-01-30T12:31:04;15.18;;;7.10;;
28774;SDS011;15926;51.348;6.596;2024-01-30T12:33:31;9.77;;;7.03;;
28774;SDS011;15926;51.348;6.596;2024-01-30T12:36:01;14.48;;;7.97;;
28774;SDS011;15926;51.348;6.596;2024-01-30T12:38:28;11.07;;;7.03;;
28774;SDS011;15926;51.348;6.596;2024-01-30T12:40:54;13.13;;;6.85;;
28774;SDS011;15926;51.348;6.596;2024-01-30T12:43:21;11.60;;;6.57;;
28774;SDS011;15926;51.348;6.596;2024-01-30T12:45:48;14.45;;;7.07;;
28774;SDS011;15926;51.348;6.596;2024-01-30T12:48:17;14.55;;;7.05;;
28774;SDS011;15926;51.348;6.596;2024-01-30T12:50:43;14.57;;;6.05;;
28774;SDS011;15926;51.348;6.596;2024-01-30T12:53:18;15.35;;;8.00;;
28774;SDS011;15926;51.348;6.596;2024-01-30T12:55:50;12.25;;;7.85;;
28774;SDS011;15926;51.348;6.596;2024-01-30T12:58:19;18.52;;;7.20;;
28774;SDS011;15926;51.348;6.596;2024-01-30T13:00:45;10.63;;;6.72;;
28774;SDS011;15926;51.348;6.596;2024-01-30T13:03:12;13.15;;;7.00;;
28774;SDS011;15926;51.348;6.596;2024-01-30T13:05:38;12.75;;;6.38;;
28774;SDS011;15926;51.348;6.596;2024-01-30T13:08:04;14.15;;;7.30;;
28774;SDS011;15926;51.348;6.596;2024-01-30T13:10:30;17.77;;;7.07;;
28774;SDS011;15926;51.348;6.596;2024-01-30T13:12:57;8.73;;;5.72;;
28774;SDS011;15926;51.348;6.596;2024-01-30T13:15:23;9.68;;;6.15;;
28774;SDS011;15926;51.348;6.596;2024-01-30T13:17:49;12.50;;;7.40;;
28774;SDS011;15926;51.348;6.596;2024-01-30T13:20:18;11.38;;;6.47;;
28774;SDS011;15926;51.348;6.596;2024-01-30T13:22:46;9.88;;;6.15;;
28774;SDS011;15926;51.348;6.596;2024-01-30T13:25:13;15.32;;;6.57;;
28774;SDS011;15926;51.348;6.596;2024-01-30T13:27:39;10.85;;;7.05;;
28774;SDS011;15926;51.348;6.596;2024-01-30T13:30:06;14.10;;;6.43;;
28774;SDS011;15926;51.348;6.596;2024-01-30T13:32:34;12.40;;;7.03;;
28774;SDS011;15926;51.348;6.596;2024-01-30T13:35:00;15.65;;;6.72;;
28774;SDS011;15926;51.348;6.596;2024-01-30T13:37:26;12.20;;;5.95;;
28774;SDS011;15926;51.348;6.596;2024-01-30T13:39:53;13.15;;;6.47;;
28774;SDS011;15926;51.348;6.596;2024-01-30T13:42:19;11.13;;;6.43;;
28774;SDS011;15926;51.348;6.596;2024-01-30T13:44:45;8.60;;;6.15;;
28774;SDS011;15926;51.348;6.596;2024-01-30T13:47:11;13.38;;;6.57;;
28774;SDS011;15926;51.348;6.596;2024-01-30T13:49:38;10.23;;;6.32;;
28774;SDS011;15926;51.348;6.596;2024-01-30T13:52:04;10.73;;;5.90;;
28774;SDS011;15926;51.348;6.596;2024-01-30T13:54:30;16.55;;;6.20;;
28774;SDS011;15926;51.348;6.596;2024-01-30T13:56:57;12.95;;;6.30;;
28774;SDS011;15926;51.348;6.596;2024-01-30T13:59:23;13.68;;;5.95;;
28774;SDS011;15926;51.348;6.596;2024-01-30T14:01:51;8.50;;;6.10;;
28774;SDS011;15926;51.348;6.596;2024-01-30T14:04:17;11.38;;;5.97;;
28774;SDS011;15926;51.348;6.596;2024-01-30T14:06:43;8.45;;;6.13;;
28774;SDS011;15926;51.348;6.596;2024-01-30T14:09:09;7.72;;;5.82;;
28774;SDS011;15926;51.348;6.596;2024-01-30T14:11:36;7.20;;;5.55;;
28774;SDS011;15926;51.348;6.596;2024-01-30T14:14:12;7.13;;;5.70;;
28774;SDS011;15926;51.348;6.596;2024-01-30T14:16:38;7.82;;;6.25;;
28774;SDS011;15926;51.348;6.596;2024-01-30T14:19:04;10.10;;;6.85;;
28774;SDS011;15926;51.348;6.596;2024-01-30T14:21:31;7.88;;;5.78;;
28774;SDS011;15926;51.348;6.596;2024-01-30T14:23:57;8.18;;;6.22;;
28774;SDS011;15926;51.348;6.596;2024-01-30T14:26:23;11.35;;;5.43;;
28774;SDS011;15926;51.348;6.596;2024-01-30T14:28:49;9.57;;;5.15;;
28774;SDS011;15926;51.348;6.596;2024-01-30T14:31:15;9.23;;;5.53;;
28774;SDS011;15926;51.348;6.596;2024-01-30T14:33:43;11.70;;;4.95;;
28774;SDS011;15926;51.348;6.596;2024-01-30T14:36:09;8.85;;;4.97;;
28774;SDS011;15926;51.348;6.596;2024-01-30T14:38:36;9.93;;;5.30;;
28774;SDS011;15926;51.348;6.596;2024-01-30T14:41:02;9.07;;;4.97;;
28774;SDS011;15926;51.348;6.596;2024-01-30T14:43:29;10.25;;;4.20;;